CheckWX is a tool to help pilots better visualize weather data.  It is not intended as a substitute for an official pre-flight weather briefing.

05:41:02 UTC

KRKW METAR
Rockwood Municipal Airport
Rockwood, Tennessee, USA
Current

26 mins ago

KRKW 270515Z AUTO 00000KT 9SM FEW038 OVC060 19/19 A3006 RMK A01
Observed
May-27 @ 05:15 UTC
Visibility
Flight Rules
VFR
Cloud Levels
  • Few at 3,800' AGL
  • Overcast at 6,000' AGL
Temperature
19°C / 66°F
Dewpoint
19°C / 66°F
Humidity
100%
Altimeter
30.06" Hg
Pressure
1017.92 hPa
Previous

46 mins ago

KRKW 270455Z AUTO 00000KT 9SM SCT027 BKN037 OVC060 19/19 A3006 RMK A01
Observed
May-27 @ 04:55 UTC
Visibility
Flight Rules
VFR
Cloud Levels
  • Scattered at 2,700' AGL
  • Broken at 3,700' AGL
  • Overcast at 6,000' AGL
Temperature
19°C / 66°F
Dewpoint
19°C / 66°F
Humidity
100%
Altimeter
30.06" Hg
Pressure
1017.92 hPa
Previous

1 hour ago

KRKW 270435Z AUTO 00000KT 6SM BR SCT026 BKN055 OVC080 19/19 A3006 RMK A01
Observed
May-27 @ 04:35 UTC
Visibility
Flight Rules
VFR
Conditions
Mist
Cloud Levels
  • Scattered at 2,600' AGL
  • Broken at 5,500' AGL
  • Overcast at 8,000' AGL
Temperature
19°C / 66°F
Dewpoint
19°C / 66°F
Humidity
100%
Altimeter
30.06" Hg
Pressure
1017.92 hPa